sensor_id;sensor_type;location;lat;lon;timestamp;pressure;altitude;pressure_sealevel;temperature;humidity
59654;BME280;66556;52.008;5.432;2023-04-19T00:00:26;102768.0;;;26.52;25.16
59654;BME280;66556;52.008;5.432;2023-04-19T00:03:38;102761.99999999999;;;26.53;25.09
59654;BME280;66556;52.008;5.432;2023-04-19T00:05:15;102754.0;;;26.16;25.6
59654;BME280;66556;52.008;5.432;2023-04-19T00:06:51;102758.0;;;26.23;25.66
59654;BME280;66556;52.008;5.432;2023-04-19T00:10:05;102758.99999999999;;;26.15;26.03
59654;BME280;66556;52.008;5.432;2023-04-19T00:11:42;102758.0;;;26.76;25.14
59654;BME280;66556;52.008;5.432;2023-04-19T00:13:18;102748.0;;;26.4;25.5
59654;BME280;66556;52.008;5.432;2023-04-19T00:14:54;102750.0;;;26.63;25.51
59654;BME280;66556;52.008;5.432;2023-04-19T00:18:07;102747.0;;;27.19;24.67
59654;BME280;66556;52.008;5.432;2023-04-19T00:19:43;102744.0;;;26.45;25.8
59654;BME280;66556;52.008;5.432;2023-04-19T00:21:19;102753.0;;;26.47;25.74
59654;BME280;66556;52.008;5.432;2023-04-19T00:24:31;102755.0;;;26.41;25.93
59654;BME280;66556;52.008;5.432;2023-04-19T00:26:07;102748.0;;;26.97;25.34
59654;BME280;66556;52.008;5.432;2023-04-19T00:27:43;102745.0;;;26.09;26.59
59654;BME280;66556;52.008;5.432;2023-04-19T00:30:56;102743.0;;;25.95;26.87
59654;BME280;66556;52.008;5.432;2023-04-19T00:32:32;102746.0;;;26.45;26.06
59654;BME280;66556;52.008;5.432;2023-04-19T00:34:09;102742.0;;;27.07;25.43
59654;BME280;66556;52.008;5.432;2023-04-19T00:35:45;102740.00000000001;;;26.58;25.98
59654;BME280;66556;52.008;5.432;2023-04-19T00:38:58;102733.99999999999;;;26.95;25.39
59654;BME280;66556;52.008;5.432;2023-04-19T00:40:34;102733.99999999999;;;27.42;24.99
59654;BME280;66556;52.008;5.432;2023-04-19T00:42:11;102725.0;;;27.36;24.97
59654;BME280;66556;52.008;5.432;2023-04-19T00:45:24;102736.99999999999;;;26.76;25.76
59654;BME280;66556;52.008;5.432;2023-04-19T00:47:01;102726.0;;;26.8;25.7
59654;BME280;66556;52.008;5.432;2023-04-19T00:48:37;102721.0;;;27.17;25.25
59654;BME280;66556;52.008;5.432;2023-04-19T00:51:50;102723.0;;;27.13;25.23
59654;BME280;66556;52.008;5.432;2023-04-19T00:53:26;102722.0;;;27.28;25.07
59654;BME280;66556;52.008;5.432;2023-04-19T00:55:03;102723.0;;;27.79;24.44
59654;BME280;66556;52.008;5.432;2023-04-19T00:56:39;102725.0;;;27.39;25.04
59654;BME280;66556;52.008;5.432;2023-04-19T00:59:53;102727.0;;;27.37;24.94
59654;BME280;66556;52.008;5.432;2023-04-19T01:01:30;102730.0;;;27.15;25.32
59654;BME280;66556;52.008;5.432;2023-04-19T01:03:06;102722.0;;;26.84;25.48
59654;BME280;66556;52.008;5.432;2023-04-19T01:06:18;102731.0;;;27.14;25.26
59654;BME280;66556;52.008;5.432;2023-04-19T01:07:54;102728.0;;;27.36;25.02
59654;BME280;66556;52.008;5.432;2023-04-19T01:09:30;102728.0;;;27.05;25.37
59654;BME280;66556;52.008;5.432;2023-04-19T01:12:43;102726.0;;;26.87;25.45
59654;BME280;66556;52.008;5.432;2023-04-19T01:14:19;102723.0;;;26.44;26.02
59654;BME280;66556;52.008;5.432;2023-04-19T01:15:56;102721.0;;;26.61;25.94
59654;BME280;66556;52.008;5.432;2023-04-19T01:17:33;102726.0;;;26.64;25.95
59654;BME280;66556;52.008;5.432;2023-04-19T01:20:45;102723.0;;;26.41;26.32
59654;BME280;66556;52.008;5.432;2023-04-19T01:22:21;102721.0;;;26.67;25.86
59654;BME280;66556;52.008;5.432;2023-04-19T01:23:57;102728.0;;;26.88;25.81
59654;BME280;66556;52.008;5.432;2023-04-19T01:27:10;102726.0;;;26.77;25.66
59654;BME280;66556;52.008;5.432;2023-04-19T01:28:47;102723.0;;;26.51;26.25
59654;BME280;66556;52.008;5.432;2023-04-19T01:30:23;102722.0;;;26.79;25.83
59654;BME280;66556;52.008;5.432;2023-04-19T01:33:36;102722.0;;;26.47;26.29
59654;BME280;66556;52.008;5.432;2023-04-19T01:35:12;102726.0;;;26.95;25.67
59654;BME280;66556;52.008;5.432;2023-04-19T01:36:48;102727.0;;;26.69;25.85
59654;BME280;66556;52.008;5.432;2023-04-19T01:38:24;102724.0;;;26.69;25.87
59654;BME280;66556;52.008;5.432;2023-04-19T01:41:38;102722.0;;;26.55;26.19
59654;BME280;66556;52.008;5.432;2023-04-19T01:43:16;102720.0;;;26.38;26.24
59654;BME280;66556;52.008;5.432;2023-04-19T01:44:52;102720.0;;;26.08;26.55
59654;BME280;66556;52.008;5.432;2023-04-19T01:48:05;102717.0;;;26.73;25.84
59654;BME280;66556;52.008;5.432;2023-04-19T01:49:41;102723.0;;;26.54;25.98
59654;BME280;66556;52.008;5.432;2023-04-19T01:51:17;102715.00000000001;;;26.21;26.54
59654;BME280;66556;52.008;5.432;2023-04-19T01:54:30;102719.0;;;26.4;26.21
59654;BME280;66556;52.008;5.432;2023-04-19T01:56:06;102719.0;;;26.6;25.93
59654;BME280;66556;52.008;5.432;2023-04-19T01:57:43;102717.0;;;26.1;26.79
59654;BME280;66556;52.008;5.432;2023-04-19T02:00:55;102717.0;;;26.25;26.26
59654;BME280;66556;52.008;5.432;2023-04-19T02:02:31;102720.0;;;26.32;26.32
59654;BME280;66556;52.008;5.432;2023-04-19T02:04:09;102720.0;;;26.44;26.26
59654;BME280;66556;52.008;5.432;2023-04-19T02:05:45;102720.0;;;26.42;26.23
59654;BME280;66556;52.008;5.432;2023-04-19T02:08:57;102721.0;;;26.24;26.27
59654;BME280;66556;52.008;5.432;2023-04-19T02:10:33;102719.0;;;26.14;26.51
59654;BME280;66556;52.008;5.432;2023-04-19T02:12:10;102722.0;;;25.8;26.92
59654;BME280;66556;52.008;5.432;2023-04-19T02:15:22;102722.0;;;25.92;26.69
59654;BME280;66556;52.008;5.432;2023-04-19T02:16:58;102723.0;;;26.22;26.37
59654;BME280;66556;52.008;5.432;2023-04-19T02:18:34;102719.0;;;25.83;26.94
59654;BME280;66556;52.008;5.432;2023-04-19T02:21:46;102720.0;;;26.03;26.69
59654;BME280;66556;52.008;5.432;2023-04-19T02:23:23;102722.0;;;26.3;26.47
59654;BME280;66556;52.008;5.432;2023-04-19T02:24:59;102717.0;;;25.44;27.24
59654;BME280;66556;52.008;5.432;2023-04-19T02:26:36;102718.0;;;26.52;26.1
59654;BME280;66556;52.008;5.432;2023-04-19T02:29:48;102718.0;;;26.58;25.83
59654;BME280;66556;52.008;5.432;2023-04-19T02:31:24;102724.0;;;26.32;26.15
59654;BME280;66556;52.008;5.432;2023-04-19T02:33:00;102723.0;;;26.45;26.21
59654;BME280;66556;52.008;5.432;2023-04-19T02:36:12;102722.0;;;25.83;27.04
59654;BME280;66556;52.008;5.432;2023-04-19T02:37:48;102727.0;;;25.61;27.16
59654;BME280;66556;52.008;5.432;2023-04-19T02:39:25;102724.0;;;25.83;27.0
59654;BME280;66556;52.008;5.432;2023-04-19T02:42:38;102724.0;;;25.81;26.9
59654;BME280;66556;52.008;5.432;2023-04-19T02:44:14;102729.0;;;25.59;27.25
59654;BME280;66556;52.008;5.432;2023-04-19T02:45:50;102732.0;;;26.13;26.79
59654;BME280;66556;52.008;5.432;2023-04-19T02:47:26;102729.0;;;25.85;27.05
59654;BME280;66556;52.008;5.432;2023-04-19T02:50:38;102730.0;;;25.73;27.37
59654;BME280;66556;52.008;5.432;2023-04-19T02:52:15;102733.0;;;25.56;27.41
59654;BME280;66556;52.008;5.432;2023-04-19T02:53:51;102732.0;;;25.69;27.18
59654;BME280;66556;52.008;5.432;2023-04-19T02:57:03;102733.0;;;25.73;27.17
59654;BME280;66556;52.008;5.432;2023-04-19T02:58:39;102732.0;;;25.64;27.44
59654;BME280;66556;52.008;5.432;2023-04-19T03:00:16;102731.0;;;25.34;27.88
59654;BME280;66556;52.008;5.432;2023-04-19T03:03:28;102729.0;;;25.77;27.34
59654;BME280;66556;52.008;5.432;2023-04-19T03:05:05;102727.0;;;25.35;27.95
59654;BME280;66556;52.008;5.432;2023-04-19T03:06:42;102726.0;;;25.7;27.31
59654;BME280;66556;52.008;5.432;2023-04-19T03:09:54;102721.0;;;25.43;27.8
59654;BME280;66556;52.008;5.432;2023-04-19T03:11:30;102728.0;;;25.28;28.12
59654;BME280;66556;52.008;5.432;2023-04-19T03:13:06;102723.0;;;25.35;27.76
59654;BME280;66556;52.008;5.432;2023-04-19T03:14:42;102721.0;;;25.39;27.71
59654;BME280;66556;52.008;5.432;2023-04-19T03:17:55;102717.0;;;25.84;27.37
59654;BME280;66556;52.008;5.432;2023-04-19T03:19:31;102719.0;;;25.83;27.43
59654;BME280;66556;52.008;5.432;2023-04-19T03:21:07;102719.0;;;25.8;27.11
59654;BME280;66556;52.008;5.432;2023-04-19T03:24:19;102718.0;;;26.0;26.82
59654;BME280;66556;52.008;5.432;2023-04-19T03:26:02;102720.0;;;26.08;27.15
59654;BME280;66556;52.008;5.432;2023-04-19T03:27:39;102724.0;;;26.29;26.61
59654;BME280;66556;52.008;5.432;2023-04-19T03:30:51;102719.0;;;25.99;26.98
59654;BME280;66556;52.008;5.432;2023-04-19T03:32:28;102722.0;;;25.91;27.12
59654;BME280;66556;52.008;5.432;2023-04-19T03:34:04;102721.0;;;26.03;27.06
59654;BME280;66556;52.008;5.432;2023-04-19T03:35:40;102715.00000000001;;;26.33;26.56
59654;BME280;66556;52.008;5.432;2023-04-19T03:38:52;102715.00000000001;;;26.42;26.38
59654;BME280;66556;52.008;5.432;2023-04-19T03:40:29;102714.00000000001;;;26.32;26.58
59654;BME280;66556;52.008;5.432;2023-04-19T03:42:05;102706.0;;;26.35;26.53
59654;BME280;66556;52.008;5.432;2023-04-19T03:45:18;102705.0;;;26.3;26.7
59654;BME280;66556;52.008;5.432;2023-04-19T03:46:54;102713.00000000001;;;26.07;27.18
59654;BME280;66556;52.008;5.432;2023-04-19T03:48:30;102715.00000000001;;;26.25;26.81
59654;BME280;66556;52.008;5.432;2023-04-19T03:51:43;102717.0;;;26.63;26.27
59654;BME280;66556;52.008;5.432;2023-04-19T03:53:19;102708.99999999999;;;26.63;26.11
59654;BME280;66556;52.008;5.432;2023-04-19T03:54:55;102708.0;;;26.61;26.32
59654;BME280;66556;52.008;5.432;2023-04-19T03:56:31;102711.99999999999;;;26.39;26.62
59654;BME280;66556;52.008;5.432;2023-04-19T03:59:44;102707.0;;;25.88;27.36
59654;BME280;66556;52.008;5.432;2023-04-19T04:01:21;102711.99999999999;;;26.13;26.93
59654;BME280;66556;52.008;5.432;2023-04-19T04:02:57;102711.99999999999;;;26.2;26.74
59654;BME280;66556;52.008;5.432;2023-04-19T04:06:09;102713.00000000001;;;26.29;26.7
59654;BME280;66556;52.008;5.432;2023-04-19T04:07:45;102715.00000000001;;;26.8;25.94
59654;BME280;66556;52.008;5.432;2023-04-19T04:09:21;102714.00000000001;;;26.24;26.73
59654;BME280;66556;52.008;5.432;2023-04-19T04:12:34;102714.00000000001;;;26.6;26.17
59654;BME280;66556;52.008;5.432;2023-04-19T04:14:10;102711.99999999999;;;26.23;26.5
59654;BME280;66556;52.008;5.432;2023-04-19T04:15:46;102714.00000000001;;;26.0;26.82
59654;BME280;66556;52.008;5.432;2023-04-19T04:18:58;102711.99999999999;;;25.95;26.65
59654;BME280;66556;52.008;5.432;2023-04-19T04:20:34;102705.0;;;25.58;26.99
59654;BME280;66556;52.008;5.432;2023-04-19T04:22:10;102707.0;;;25.34;27.36
59654;BME280;66556;52.008;5.432;2023-04-19T04:23:46;102708.0;;;25.36;27.39
59654;BME280;66556;52.008;5.432;2023-04-19T04:26:59;102707.0;;;25.77;26.76
59654;BME280;66556;52.008;5.432;2023-04-19T04:28:35;102714.00000000001;;;25.2;27.35
59654;BME280;66556;52.008;5.432;2023-04-19T04:30:11;102707.0;;;25.26;27.45
59654;BME280;66556;52.008;5.432;2023-04-19T04:33:23;102708.99999999999;;;25.66;26.84
59654;BME280;66556;52.008;5.432;2023-04-19T04:35:00;102714.00000000001;;;24.69;27.93
59654;BME280;66556;52.008;5.432;2023-04-19T04:36:36;102711.99999999999;;;24.63;27.94
59654;BME280;66556;52.008;5.432;2023-04-19T04:39:47;102716.00000000001;;;25.1;27.44
59654;BME280;66556;52.008;5.432;2023-04-19T04:41:22;102711.99999999999;;;25.7;26.61
59654;BME280;66556;52.008;5.432;2023-04-19T04:42:58;102715.00000000001;;;25.91;26.3
59654;BME280;66556;52.008;5.432;2023-04-19T04:46:09;102714.00000000001;;;25.71;26.31
59654;BME280;66556;52.008;5.432;2023-04-19T04:47:45;102708.99999999999;;;25.48;26.68
59654;BME280;66556;52.008;5.432;2023-04-19T04:49:22;102708.99999999999;;;25.12;26.85
59654;BME280;66556;52.008;5.432;2023-04-19T04:50:58;102708.99999999999;;;24.66;27.33
59654;BME280;66556;52.008;5.432;2023-04-19T04:54:09;102708.99999999999;;;25.03;27.15
59654;BME280;66556;52.008;5.432;2023-04-19T04:55:44;102704.0;;;25.08;27.04
59654;BME280;66556;52.008;5.432;2023-04-19T04:57:21;102709.99999999999;;;25.06;26.88
59654;BME280;66556;52.008;5.432;2023-04-19T05:00:33;102717.0;;;25.68;26.23
59654;BME280;66556;52.008;5.432;2023-04-19T05:02:08;102717.0;;;25.66;26.17
59654;BME280;66556;52.008;5.432;2023-04-19T05:03:44;102715.00000000001;;;25.66;26.13
59654;BME280;66556;52.008;5.432;2023-04-19T05:06:55;102708.99999999999;;;25.45;26.31
59654;BME280;66556;52.008;5.432;2023-04-19T05:08:31;102719.0;;;25.29;26.21
59654;BME280;66556;52.008;5.432;2023-04-19T05:10:07;102713.00000000001;;;25.17;26.64
59654;BME280;66556;52.008;5.432;2023-04-19T05:13:20;102717.0;;;25.84;25.68
59654;BME280;66556;52.008;5.432;2023-04-19T05:14:56;102718.0;;;25.57;26.28
59654;BME280;66556;52.008;5.432;2023-04-19T05:16:32;102716.00000000001;;;25.78;25.91
59654;BME280;66556;52.008;5.432;2023-04-19T05:18:08;102719.0;;;25.8;25.72
59654;BME280;66556;52.008;5.432;2023-04-19T05:21:21;102725.0;;;24.83;27.1
59654;BME280;66556;52.008;5.432;2023-04-19T05:22:57;102728.0;;;24.19;27.97
59654;BME280;66556;52.008;5.432;2023-04-19T05:24:34;102725.0;;;24.6;27.54
59654;BME280;66556;52.008;5.432;2023-04-19T05:27:46;102728.0;;;24.61;27.84
59654;BME280;66556;52.008;5.432;2023-04-19T05:29:22;102725.0;;;24.15;28.14
59654;BME280;66556;52.008;5.432;2023-04-19T05:30:58;102729.0;;;25.03;27.45
59654;BME280;66556;52.008;5.432;2023-04-19T05:34:10;102727.0;;;25.3;27.05
59654;BME280;66556;52.008;5.432;2023-04-19T05:35:46;102731.0;;;24.93;27.16
59654;BME280;66556;52.008;5.432;2023-04-19T05:37:23;102728.0;;;24.5;27.52
59654;BME280;66556;52.008;5.432;2023-04-19T05:38:59;102733.0;;;24.43;27.52
59654;BME280;66556;52.008;5.432;2023-04-19T05:42:11;102731.0;;;25.05;27.2
59654;BME280;66556;52.008;5.432;2023-04-19T05:43:47;102727.0;;;24.96;26.73
59654;BME280;66556;52.008;5.432;2023-04-19T05:45:24;102726.0;;;25.63;26.12
59654;BME280;66556;52.008;5.432;2023-04-19T05:50:13;102732.0;;;25.06;26.2
59654;BME280;66556;52.008;5.432;2023-04-19T05:51:49;102726.0;;;26.32;24.9
59654;BME280;66556;52.008;5.432;2023-04-19T05:55:04;102726.0;;;25.87;24.96
59654;BME280;66556;52.008;5.432;2023-04-19T05:56:40;102732.0;;;26.07;24.97
59654;BME280;66556;52.008;5.432;2023-04-19T05:58:17;102728.0;;;25.99;25.06
59654;BME280;66556;52.008;5.432;2023-04-19T06:01:29;102732.0;;;25.07;25.44
59654;BME280;66556;52.008;5.432;2023-04-19T06:03:07;102731.0;;;24.75;25.68
59654;BME280;66556;52.008;5.432;2023-04-19T06:04:44;102727.0;;;25.74;24.79
59654;BME280;66556;52.008;5.432;2023-04-19T06:06:21;102726.0;;;25.6;24.87
59654;BME280;66556;52.008;5.432;2023-04-19T06:09:34;102723.0;;;25.48;24.72
59654;BME280;66556;52.008;5.432;2023-04-19T06:11:10;102726.0;;;25.73;24.23
59654;BME280;66556;52.008;5.432;2023-04-19T06:12:46;102722.0;;;25.98;24.25
59654;BME280;66556;52.008;5.432;2023-04-19T06:16:00;102726.0;;;26.44;23.35
59654;BME280;66556;52.008;5.432;2023-04-19T06:17:37;102726.0;;;26.69;22.98
59654;BME280;66556;52.008;5.432;2023-04-19T06:19:13;102730.0;;;26.86;22.79
59654;BME280;66556;52.008;5.432;2023-04-19T06:20:49;102728.0;;;27.09;22.16
59654;BME280;66556;52.008;5.432;2023-04-19T06:24:05;102727.0;;;26.71;22.72
59654;BME280;66556;52.008;5.432;2023-04-19T06:25:42;102733.0;;;26.54;21.95
59654;BME280;66556;52.008;5.432;2023-04-19T06:27:18;102733.99999999999;;;27.56;21.73
59654;BME280;66556;52.008;5.432;2023-04-19T06:30:30;102734.99999999999;;;27.57;21.51
59654;BME280;66556;52.008;5.432;2023-04-19T06:32:06;102730.0;;;27.96;21.2
59654;BME280;66556;52.008;5.432;2023-04-19T06:33:42;102730.0;;;28.46;20.66
59654;BME280;66556;52.008;5.432;2023-04-19T06:36:55;102729.0;;;28.04;20.82
59654;BME280;66556;52.008;5.432;2023-04-19T06:38:31;102736.99999999999;;;28.57;20.45
59654;BME280;66556;52.008;5.432;2023-04-19T06:40:08;102733.99999999999;;;27.97;20.09
59654;BME280;66556;52.008;5.432;2023-04-19T06:43:20;102738.00000000001;;;27.39;20.02
59654;BME280;66556;52.008;5.432;2023-04-19T06:44:56;102736.99999999999;;;27.77;20.09
59654;BME280;66556;52.008;5.432;2023-04-19T06:46:32;102733.99999999999;;;28.1;19.84
59654;BME280;66556;52.008;5.432;2023-04-19T06:48:08;102738.00000000001;;;27.66;19.91
59654;BME280;66556;52.008;5.432;2023-04-19T06:51:21;102734.99999999999;;;27.52;20.02
59654;BME280;66556;52.008;5.432;2023-04-19T06:52:57;102734.99999999999;;;27.37;19.43
59654;BME280;66556;52.008;5.432;2023-04-19T06:54:33;102733.0;;;27.24;19.78
59654;BME280;66556;52.008;5.432;2023-04-19T06:57:45;102739.00000000001;;;27.19;19.55
59654;BME280;66556;52.008;5.432;2023-04-19T06:59:21;102727.0;;;27.34;19.46
59654;BME280;66556;52.008;5.432;2023-04-19T07:00:58;102732.0;;;28.32;18.52
59654;BME280;66556;52.008;5.432;2023-04-19T07:04:11;102733.99999999999;;;28.44;19.0
59654;BME280;66556;52.008;5.432;2023-04-19T07:05:48;102731.0;;;28.27;18.14
59654;BME280;66556;52.008;5.432;2023-04-19T07:07:24;102725.0;;;28.45;17.93
59654;BME280;66556;52.008;5.432;2023-04-19T07:09:00;102727.0;;;27.94;18.77
59654;BME280;66556;52.008;5.432;2023-04-19T07:12:13;102727.0;;;28.44;18.23
59654;BME280;66556;52.008;5.432;2023-04-19T07:13:50;102726.0;;;28.69;17.45
59654;BME280;66556;52.008;5.432;2023-04-19T07:15:26;102732.0;;;28.58;17.91
59654;BME280;66556;52.008;5.432;2023-04-19T07:18:39;102733.99999999999;;;28.82;17.7
59654;BME280;66556;52.008;5.432;2023-04-19T07:20:15;102732.0;;;29.13;17.52
59654;BME280;66556;52.008;5.432;2023-04-19T07:21:51;102730.0;;;29.01;17.25
59654;BME280;66556;52.008;5.432;2023-04-19T07:25:04;102732.0;;;29.73;17.2
59654;BME280;66556;52.008;5.432;2023-04-19T07:26:41;102728.0;;;29.94;16.09
59654;BME280;66556;52.008;5.432;2023-04-19T07:28:17;102731.0;;;30.18;15.84
59654;BME280;66556;52.008;5.432;2023-04-19T07:29:53;102731.0;;;29.86;16.64
59654;BME280;66556;52.008;5.432;2023-04-19T07:33:06;102724.0;;;29.45;15.84
59654;BME280;66556;52.008;5.432;2023-04-19T07:34:42;102728.0;;;29.44;16.07
59654;BME280;66556;52.008;5.432;2023-04-19T07:36:19;102732.0;;;29.54;15.96
59654;BME280;66556;52.008;5.432;2023-04-19T07:39:31;102740.00000000001;;;29.24;16.36
59654;BME280;66556;52.008;5.432;2023-04-19T07:41:07;102733.99999999999;;;30.53;15.99
59654;BME280;66556;52.008;5.432;2023-04-19T07:42:43;102741.00000000001;;;29.17;15.64
59654;BME280;66556;52.008;5.432;2023-04-19T07:45:55;102730.0;;;30.73;15.51
59654;BME280;66556;52.008;5.432;2023-04-19T07:47:31;102734.99999999999;;;30.88;15.15
59654;BME280;66556;52.008;5.432;2023-04-19T07:49:07;102732.0;;;30.6;15.1
59654;BME280;66556;52.008;5.432;2023-04-19T07:52:19;102732.0;;;30.95;14.81
59654;BME280;66556;52.008;5.432;2023-04-19T07:53:56;102733.99999999999;;;30.43;14.98
59654;BME280;66556;52.008;5.432;2023-04-19T07:55:32;102731.0;;;30.81;14.49
59654;BME280;66556;52.008;5.432;2023-04-19T07:57:08;102732.0;;;30.51;14.78
59654;BME280;66556;52.008;5.432;2023-04-19T08:00:20;102733.0;;;30.96;15.2
59654;BME280;66556;52.008;5.432;2023-04-19T08:01:56;102736.99999999999;;;30.53;14.66
59654;BME280;66556;52.008;5.432;2023-04-19T08:03:33;102732.0;;;30.77;14.43
59654;BME280;66556;52.008;5.432;2023-04-19T08:06:46;102738.00000000001;;;31.18;15.21
59654;BME280;66556;52.008;5.432;2023-04-19T08:08:23;102733.99999999999;;;30.69;14.05
59654;BME280;66556;52.008;5.432;2023-04-19T08:09:59;102740.00000000001;;;31.36;15.17
59654;BME280;66556;52.008;5.432;2023-04-19T08:13:11;102734.99999999999;;;31.4;15.01
59654;BME280;66556;52.008;5.432;2023-04-19T08:14:47;102736.99999999999;;;31.14;14.95
59654;BME280;66556;52.008;5.432;2023-04-19T08:16:23;102736.99999999999;;;30.42;14.44
59654;BME280;66556;52.008;5.432;2023-04-19T08:18:00;102738.00000000001;;;30.79;14.89
59654;BME280;66556;52.008;5.432;2023-04-19T08:21:12;102734.99999999999;;;30.42;14.53
59654;BME280;66556;52.008;5.432;2023-04-19T08:22:48;102739.00000000001;;;29.73;14.72
59654;BME280;66556;52.008;5.432;2023-04-19T08:24:24;102731.0;;;30.08;15.35
59654;BME280;66556;52.008;5.432;2023-04-19T08:27:36;102734.99999999999;;;31.34;14.81
59654;BME280;66556;52.008;5.432;2023-04-19T08:29:12;102731.0;;;31.13;13.89
59654;BME280;66556;52.008;5.432;2023-04-19T08:30:48;102730.0;;;30.96;15.1
59654;BME280;66556;52.008;5.432;2023-04-19T08:34:01;102721.0;;;30.84;14.4
59654;BME280;66556;52.008;5.432;2023-04-19T08:35:37;102718.0;;;31.06;15.12
59654;BME280;66556;52.008;5.432;2023-04-19T08:37:14;102719.0;;;31.14;13.41
59654;BME280;66556;52.008;5.432;2023-04-19T08:40:28;102724.0;;;30.98;13.95
59654;BME280;66556;52.008;5.432;2023-04-19T08:42:07;102720.0;;;30.94;13.23
59654;BME280;66556;52.008;5.432;2023-04-19T08:43:44;102719.0;;;30.02;13.9
59654;BME280;66556;52.008;5.432;2023-04-19T08:45:26;102723.0;;;30.35;14.22
59654;BME280;66556;52.008;5.432;2023-04-19T08:48:39;102720.0;;;30.0;14.34
59654;BME280;66556;52.008;5.432;2023-04-19T08:50:19;102719.0;;;29.17;14.4
59654;BME280;66556;52.008;5.432;2023-04-19T08:51:57;102719.0;;;29.23;15.67
59654;BME280;66556;52.008;5.432;2023-04-19T08:53:33;102722.0;;;30.44;15.31
59654;BME280;66556;52.008;5.432;2023-04-19T08:56:46;102717.0;;;29.38;14.72
59654;BME280;66556;52.008;5.432;2023-04-19T08:58:22;102720.0;;;29.59;14.74
59654;BME280;66556;52.008;5.432;2023-04-19T08:59:59;102717.0;;;29.76;15.62
59654;BME280;66556;52.008;5.432;2023-04-19T09:03:11;102711.99999999999;;;29.44;15.05
59654;BME280;66556;52.008;5.432;2023-04-19T09:04:47;102711.99999999999;;;30.91;13.59
59654;BME280;66556;52.008;5.432;2023-04-19T09:06:23;102719.0;;;29.74;14.51
59654;BME280;66556;52.008;5.432;2023-04-19T09:10:05;102719.0;;;29.95;14.56
59654;BME280;66556;52.008;5.432;2023-04-19T09:11:41;102701.0;;;30.7;13.54
59654;BME280;66556;52.008;5.432;2023-04-19T09:13:17;102709.99999999999;;;29.16;15.16
59654;BME280;66556;52.008;5.432;2023-04-19T09:14:53;102708.99999999999;;;30.35;14.77
59654;BME280;66556;52.008;5.432;2023-04-19T09:18:07;102717.0;;;30.31;13.44
59654;BME280;66556;52.008;5.432;2023-04-19T09:19:45;102716.00000000001;;;29.68;14.22
59654;BME280;66556;52.008;5.432;2023-04-19T09:21:30;102709.99999999999;;;30.31;13.39
59654;BME280;66556;52.008;5.432;2023-04-19T09:23:08;102703.0;;;30.53;13.75
59654;BME280;66556;52.008;5.432;2023-04-19T09:26:21;102709.99999999999;;;30.94;12.61
59654;BME280;66556;52.008;5.432;2023-04-19T09:28:07;102713.00000000001;;;29.54;12.81
59654;BME280;66556;52.008;5.432;2023-04-19T09:29:51;102715.00000000001;;;28.21;13.68
59654;BME280;66556;52.008;5.432;2023-04-19T09:31:29;102709.99999999999;;;29.07;14.45
59654;BME280;66556;52.008;5.432;2023-04-19T09:34:50;102701.0;;;30.6;13.9
59654;BME280;66556;52.008;5.432;2023-04-19T09:36:28;102702.0;;;31.23;12.95
59654;BME280;66556;52.008;5.432;2023-04-19T09:38:05;102702.0;;;30.63;13.37
59654;BME280;66556;52.008;5.432;2023-04-19T09:39:41;102705.0;;;31.2;13.13
59654;BME280;66556;52.008;5.432;2023-04-19T09:42:53;102706.0;;;29.97;12.6
59654;BME280;66556;52.008;5.432;2023-04-19T09:44:29;102699.0;;;29.92;13.63
59654;BME280;66556;52.008;5.432;2023-04-19T09:46:05;102705.0;;;30.0;14.49
59654;BME280;66556;52.008;5.432;2023-04-19T09:49:20;102695.0;;;30.76;13.31
59654;BME280;66556;52.008;5.432;2023-04-19T09:50:58;102698.0;;;30.96;13.55
59654;BME280;66556;52.008;5.432;2023-04-19T09:52:35;102699.0;;;31.07;12.57
59654;BME280;66556;52.008;5.432;2023-04-19T09:54:14;102701.0;;;30.4;13.19
59654;BME280;66556;52.008;5.432;2023-04-19T09:57:27;102698.0;;;31.11;12.51
59654;BME280;66556;52.008;5.432;2023-04-19T09:59:04;102704.0;;;30.72;13.2
59654;BME280;66556;52.008;5.432;2023-04-19T10:00:42;102709.99999999999;;;30.57;12.22
59654;BME280;66556;52.008;5.432;2023-04-19T10:03:58;102709.99999999999;;;30.03;13.14
59654;BME280;66556;52.008;5.432;2023-04-19T10:05:35;102702.0;;;30.68;13.37
59654;BME280;66556;52.008;5.432;2023-04-19T10:07:13;102701.0;;;31.2;13.62
59654;BME280;66556;52.008;5.432;2023-04-19T10:10:30;102701.0;;;29.91;13.86
59654;BME280;66556;52.008;5.432;2023-04-19T10:12:07;102719.0;;;29.06;14.47
59654;BME280;66556;52.008;5.432;2023-04-19T10:13:44;102683.99999999999;;;30.12;14.57
59654;BME280;66556;52.008;5.432;2023-04-19T10:15:23;102694.0;;;30.23;13.77
59654;BME280;66556;52.008;5.432;2023-04-19T10:18:37;102692.0;;;30.29;13.37
59654;BME280;66556;52.008;5.432;2023-04-19T10:20:19;102679.0;;;30.38;13.25
59654;BME280;66556;52.008;5.432;2023-04-19T10:21:57;102691.00000000001;;;29.67;13.17
59654;BME280;66556;52.008;5.432;2023-04-19T10:23:33;102694.0;;;30.19;13.57
59654;BME280;66556;52.008;5.432;2023-04-19T10:27:23;102679.0;;;28.86;14.42
59654;BME280;66556;52.008;5.432;2023-04-19T10:29:00;102680.0;;;30.82;14.41
59654;BME280;66556;52.008;5.432;2023-04-19T10:30:51;102679.0;;;31.12;12.8
59654;BME280;66556;52.008;5.432;2023-04-19T10:32:29;102675.0;;;32.14;13.89
59654;BME280;66556;52.008;5.432;2023-04-19T10:34:12;102679.0;;;31.53;12.84
59654;BME280;66556;52.008;5.432;2023-04-19T10:37:25;102675.0;;;31.34;12.9
59654;BME280;66556;52.008;5.432;2023-04-19T10:39:01;102658.99999999999;;;32.18;12.81
59654;BME280;66556;52.008;5.432;2023-04-19T10:40:55;102665.00000000001;;;31.27;13.13
59654;BME280;66556;52.008;5.432;2023-04-19T10:43:37;102674.0;;;32.25;13.05